JST2151 YSSY-YMML
Flight info
| Callsign | JST2151 |
|---|---|
| Flight time | 1h 11m |
| Altitude | 36000 |
| Route | MARUB7/34R WOL H65 LEECE Q29 ML |
| Aircraft | A320/M-SDE3FGHIRWY/LB1 |
Departure
| Time | 2026-04-26 04:56 |
|---|---|
| Airport | Sydney Kingsford Smith International Airport (YSSY) |
Arrival
| Time | 2026-04-26 06:07 |
|---|---|
| Airport | Melbourne Airport (YMML) |
| Time | Latitude | Longitude | Altitude | Speed | Heading |
|---|---|---|---|---|---|
| 2026-04-26 04:31 | -33.93514 | 151.17696 | 30 ft | 0 kts | 101° |
| 2026-04-26 04:43 | -33.93513 | 151.17687 | 30 ft | 4 kts | 103° |
| 2026-04-26 04:44 | -33.93504 | 151.17657 | 30 ft | 4 kts | 120° |
| 2026-04-26 04:44 | -33.93493 | 151.17635 | 30 ft | 4 kts | 112° |
| 2026-04-26 04:44 | -33.93491 | 151.17607 | 30 ft | 4 kts | 54° |
| 2026-04-26 04:44 | -33.93510 | 151.17593 | 30 ft | 3 kts | 352° |
| 2026-04-26 04:45 | -33.93514 | 151.17593 | 30 ft | 0 kts | 348° |
| 2026-04-26 04:47 | -33.93501 | 151.17589 | 30 ft | 7 kts | 344° |
| 2026-04-26 04:48 | -33.93551 | 151.17520 | 29 ft | 16 kts | 167° |
| 2026-04-26 04:48 | -33.93641 | 151.17591 | 29 ft | 17 kts | 106° |
| 2026-04-26 04:48 | -33.93727 | 151.17683 | 30 ft | 18 kts | 167° |
| 2026-04-26 04:49 | -33.93849 | 151.17732 | 30 ft | 19 kts | 132° |
| 2026-04-26 04:49 | -33.93972 | 151.17800 | 29 ft | 21 kts | 166° |
| 2026-04-26 04:49 | -33.94125 | 151.17838 | 29 ft | 23 kts | 169° |
| 2026-04-26 04:49 | -33.94290 | 151.17880 | 30 ft | 25 kts | 167° |
| 2026-04-26 04:50 | -33.94464 | 151.17894 | 30 ft | 26 kts | 198° |
| 2026-04-26 04:50 | -33.94652 | 151.17914 | 30 ft | 28 kts | 167° |
| 2026-04-26 04:50 | -33.94850 | 151.17967 | 30 ft | 31 kts | 168° |
| 2026-04-26 04:50 | -33.95046 | 151.18017 | 30 ft | 25 kts | 167° |
| 2026-04-26 04:51 | -33.95093 | 151.18147 | 30 ft | 20 kts | 77° |
| 2026-04-26 04:51 | -33.95062 | 151.18314 | 30 ft | 21 kts | 78° |
| 2026-04-26 04:51 | -33.95050 | 151.18487 | 30 ft | 20 kts | 122° |
| 2026-04-26 04:51 | -33.95164 | 151.18598 | 30 ft | 22 kts | 137° |
| 2026-04-26 04:52 | -33.95312 | 151.18716 | 30 ft | 28 kts | 163° |
| 2026-04-26 04:52 | -33.95511 | 151.18770 | 30 ft | 30 kts | 168° |
| 2026-04-26 04:52 | -33.95722 | 151.18825 | 30 ft | 32 kts | 168° |
| 2026-04-26 04:52 | -33.95944 | 151.18882 | 30 ft | 33 kts | 168° |
| 2026-04-26 04:53 | -33.96177 | 151.18943 | 30 ft | 35 kts | 168° |
| 2026-04-26 04:53 | -33.96419 | 151.19005 | 30 ft | 36 kts | 167° |
| 2026-04-26 04:53 | -33.96664 | 151.19069 | 30 ft | 30 kts | 168° |
| 2026-04-26 04:53 | -33.96866 | 151.19076 | 30 ft | 30 kts | 166° |
| 2026-04-26 04:54 | -33.97025 | 151.19118 | 30 ft | 18 kts | 168° |
| 2026-04-26 04:54 | -33.97120 | 151.19178 | 30 ft | 15 kts | 110° |
| 2026-04-26 04:54 | -33.97106 | 151.19305 | 27 ft | 17 kts | 71° |
| 2026-04-26 04:54 | -33.97011 | 151.19365 | 25 ft | 16 kts | 338° |
| 2026-04-26 04:55 | -33.96890 | 151.19329 | 24 ft | 28 kts | 347° |
| 2026-04-26 04:55 | -33.96457 | 151.19216 | 27 ft | 96 kts | 347° |
| 2026-04-26 04:55 | -33.95637 | 151.19003 | 27 ft | 143 kts | 348° |
| 2026-04-26 04:55 | -33.94597 | 151.18734 | 358 ft | 155 kts | 351° |
| 2026-04-26 04:56 | -33.93532 | 151.18661 | 900 ft | 153 kts | 17° |
| 2026-04-26 04:56 | -33.92644 | 151.19312 | 1524 ft | 152 kts | 50° |
| 2026-04-26 04:56 | -33.92226 | 151.20509 | 1979 ft | 169 kts | 84° |
| 2026-04-26 04:56 | -33.92559 | 151.21939 | 2356 ft | 187 kts | 117° |
| 2026-04-26 04:57 | -33.93189 | 151.23333 | 2900 ft | 193 kts | 117° |
| 2026-04-26 04:57 | -33.93752 | 151.24808 | 3502 ft | 196 kts | 101° |
| 2026-04-26 04:57 | -33.93815 | 151.26515 | 3847 ft | 215 kts | 85° |
| 2026-04-26 04:57 | -33.93755 | 151.28393 | 4196 ft | 235 kts | 86° |
| 2026-04-26 04:58 | -33.93691 | 151.30455 | 4572 ft | 258 kts | 86° |
| 2026-04-26 04:58 | -33.93624 | 151.32665 | 5282 ft | 268 kts | 87° |
| 2026-04-26 04:58 | -33.93558 | 151.34926 | 6157 ft | 272 kts | 89° |
| 2026-04-26 04:58 | -33.93865 | 151.37174 | 6977 ft | 276 kts | 112° |
| 2026-04-26 04:59 | -33.94929 | 151.39097 | 7807 ft | 279 kts | 137° |
| 2026-04-26 04:59 | -33.96566 | 151.40289 | 8626 ft | 283 kts | 162° |
| 2026-04-26 04:59 | -33.98522 | 151.40517 | 9454 ft | 287 kts | 188° |
| 2026-04-26 04:59 | -34.00397 | 151.39671 | 10244 ft | 294 kts | 213° |
| 2026-04-26 05:00 | -34.02025 | 151.38066 | 10622 ft | 314 kts | 220° |
| 2026-04-26 05:00 | -34.03705 | 151.36257 | 10941 ft | 331 kts | 221° |
| 2026-04-26 05:00 | -34.05420 | 151.34366 | 11562 ft | 337 kts | 221° |
| 2026-04-26 05:00 | -34.07154 | 151.32445 | 12265 ft | 340 kts | 221° |
| 2026-04-26 05:01 | -34.08907 | 151.30509 | 12982 ft | 343 kts | 221° |
| 2026-04-26 05:01 | -34.10675 | 151.28564 | 13709 ft | 346 kts | 221° |
| 2026-04-26 05:01 | -34.12462 | 151.26608 | 14381 ft | 348 kts | 221° |
| 2026-04-26 05:01 | -34.14270 | 151.24638 | 14991 ft | 352 kts | 220° |
| 2026-04-26 05:02 | -34.16096 | 151.22648 | 15596 ft | 355 kts | 220° |
| 2026-04-26 05:02 | -34.17943 | 151.20642 | 16183 ft | 359 kts | 220° |
| 2026-04-26 05:02 | -34.19807 | 151.18612 | 16778 ft | 362 kts | 220° |
| 2026-04-26 05:02 | -34.21686 | 151.16560 | 17381 ft | 366 kts | 220° |
| 2026-04-26 05:03 | -34.23581 | 151.14489 | 17984 ft | 369 kts | 220° |
| 2026-04-26 05:03 | -34.25492 | 151.12398 | 18575 ft | 373 kts | 220° |
| 2026-04-26 05:03 | -34.27423 | 151.10283 | 19106 ft | 376 kts | 220° |
| 2026-04-26 05:03 | -34.29369 | 151.08154 | 19654 ft | 379 kts | 220° |
| 2026-04-26 05:04 | -34.31335 | 151.06003 | 20208 ft | 382 kts | 220° |
| 2026-04-26 05:04 | -34.33313 | 151.03843 | 20763 ft | 385 kts | 220° |
| 2026-04-26 05:04 | -34.35310 | 151.01659 | 21307 ft | 388 kts | 220° |
| 2026-04-26 05:04 | -34.37319 | 150.99453 | 21824 ft | 391 kts | 220° |
| 2026-04-26 05:05 | -34.39342 | 150.97230 | 22343 ft | 395 kts | 220° |
| 2026-04-26 05:05 | -34.41387 | 150.94979 | 22866 ft | 398 kts | 220° |
| 2026-04-26 05:05 | -34.43441 | 150.92716 | 23385 ft | 401 kts | 220° |
| 2026-04-26 05:05 | -34.45515 | 150.90435 | 23882 ft | 404 kts | 220° |
| 2026-04-26 05:06 | -34.47606 | 150.88137 | 24305 ft | 407 kts | 220° |
| 2026-04-26 05:06 | -34.49703 | 150.85825 | 24754 ft | 409 kts | 220° |
| 2026-04-26 05:06 | -34.51811 | 150.83496 | 25197 ft | 411 kts | 220° |
| 2026-04-26 05:06 | -34.53926 | 150.81160 | 25626 ft | 413 kts | 220° |
| 2026-04-26 05:07 | -34.55973 | 150.78704 | 26044 ft | 416 kts | 227° |
| 2026-04-26 05:07 | -34.57716 | 150.75940 | 26455 ft | 419 kts | 232° |
| 2026-04-26 05:07 | -34.59438 | 150.73081 | 26875 ft | 421 kts | 232° |
| 2026-04-26 05:07 | -34.61170 | 150.70208 | 27284 ft | 423 kts | 232° |
| 2026-04-26 05:08 | -34.62910 | 150.67325 | 27678 ft | 425 kts | 232° |
| 2026-04-26 05:08 | -34.64660 | 150.64428 | 28075 ft | 427 kts | 232° |
| 2026-04-26 05:08 | -34.66419 | 150.61512 | 28465 ft | 428 kts | 232° |
| 2026-04-26 05:08 | -34.68179 | 150.58587 | 28860 ft | 430 kts | 232° |
| 2026-04-26 05:09 | -34.69947 | 150.55643 | 29240 ft | 432 kts | 232° |
| 2026-04-26 05:09 | -34.71719 | 150.52682 | 29613 ft | 434 kts | 232° |
| 2026-04-26 05:09 | -34.73500 | 150.49703 | 30007 ft | 437 kts | 232° |
| 2026-04-26 05:09 | -34.75290 | 150.46708 | 30362 ft | 439 kts | 232° |
| 2026-04-26 05:10 | -34.77086 | 150.43700 | 30680 ft | 440 kts | 232° |
| 2026-04-26 05:10 | -34.78895 | 150.40675 | 30999 ft | 442 kts | 232° |
| 2026-04-26 05:10 | -34.80706 | 150.37650 | 31318 ft | 443 kts | 232° |
| 2026-04-26 05:10 | -34.82520 | 150.34619 | 31762 ft | 442 kts | 232° |
| 2026-04-26 05:11 | -34.84326 | 150.31599 | 32218 ft | 440 kts | 232° |
| 2026-04-26 05:11 | -34.86121 | 150.28585 | 32673 ft | 438 kts | 232° |
| 2026-04-26 05:11 | -34.87906 | 150.25581 | 33104 ft | 437 kts | 233° |
| 2026-04-26 05:11 | -34.89686 | 150.22585 | 33548 ft | 436 kts | 233° |
| 2026-04-26 05:12 | -34.91462 | 150.19598 | 33988 ft | 435 kts | 233° |
| 2026-04-26 05:12 | -34.93235 | 150.16612 | 34403 ft | 434 kts | 233° |
| 2026-04-26 05:12 | -34.95001 | 150.13639 | 34769 ft | 433 kts | 233° |
| 2026-04-26 05:12 | -34.96763 | 150.10670 | 35134 ft | 432 kts | 233° |
| 2026-04-26 05:13 | -34.98518 | 150.07711 | 35474 ft | 430 kts | 233° |
| 2026-04-26 05:13 | -35.00272 | 150.04752 | 35813 ft | 430 kts | 233° |
| 2026-04-26 05:13 | -35.01995 | 150.01844 | 36122 ft | 429 kts | 233° |
| 2026-04-26 05:13 | -35.03744 | 149.98885 | 36213 ft | 429 kts | 233° |
| 2026-04-26 05:14 | -35.07224 | 149.92982 | 36223 ft | 428 kts | 233° |
| 2026-04-26 05:14 | -35.10700 | 149.87086 | 36228 ft | 428 kts | 233° |
| 2026-04-26 05:15 | -35.14170 | 149.81178 | 36223 ft | 428 kts | 233° |
| 2026-04-26 05:15 | -35.17639 | 149.75275 | 36229 ft | 427 kts | 233° |
| 2026-04-26 05:16 | -35.20521 | 149.70369 | 36229 ft | 428 kts | 233° |
| 2026-04-26 05:16 | -35.23985 | 149.64451 | 36237 ft | 428 kts | 233° |
| 2026-04-26 05:17 | -35.27445 | 149.58530 | 36244 ft | 428 kts | 233° |
| 2026-04-26 05:17 | -35.30905 | 149.52603 | 36245 ft | 428 kts | 233° |
| 2026-04-26 05:18 | -35.34365 | 149.46676 | 36252 ft | 428 kts | 234° |
| 2026-04-26 05:18 | -35.37815 | 149.40745 | 36256 ft | 428 kts | 234° |
| 2026-04-26 05:19 | -35.41243 | 149.34835 | 36261 ft | 428 kts | 234° |
| 2026-04-26 05:19 | -35.44694 | 149.28890 | 36257 ft | 428 kts | 234° |
| 2026-04-26 05:20 | -35.48147 | 149.22923 | 36259 ft | 428 kts | 234° |
| 2026-04-26 05:20 | -35.51593 | 149.16962 | 36255 ft | 428 kts | 234° |
| 2026-04-26 05:21 | -35.55038 | 149.10989 | 36253 ft | 429 kts | 234° |
| 2026-04-26 05:21 | -35.58479 | 149.05012 | 36248 ft | 429 kts | 234° |
| 2026-04-26 05:22 | -35.61915 | 148.99024 | 36253 ft | 429 kts | 234° |
| 2026-04-26 05:22 | -35.65354 | 148.93019 | 36253 ft | 429 kts | 234° |
| 2026-04-26 05:23 | -35.68790 | 148.87018 | 36258 ft | 429 kts | 234° |
| 2026-04-26 05:23 | -35.72223 | 148.81025 | 36261 ft | 428 kts | 234° |
| 2026-04-26 05:24 | -35.75628 | 148.75071 | 36266 ft | 428 kts | 234° |
| 2026-04-26 05:24 | -35.79041 | 148.69079 | 36268 ft | 427 kts | 235° |
| 2026-04-26 05:25 | -35.82445 | 148.63086 | 36267 ft | 427 kts | 235° |
| 2026-04-26 05:25 | -35.85849 | 148.57088 | 36265 ft | 427 kts | 235° |
| 2026-04-26 05:26 | -35.89250 | 148.51094 | 36268 ft | 427 kts | 235° |
| 2026-04-26 05:26 | -35.92639 | 148.45091 | 36269 ft | 426 kts | 235° |
| 2026-04-26 05:27 | -35.96022 | 148.39077 | 36265 ft | 426 kts | 236° |
| 2026-04-26 05:27 | -35.99390 | 148.33061 | 36264 ft | 426 kts | 236° |
| 2026-04-26 05:28 | -36.02771 | 148.27031 | 36265 ft | 426 kts | 236° |
| 2026-04-26 05:28 | -36.06154 | 148.20999 | 36256 ft | 427 kts | 236° |
| 2026-04-26 05:29 | -36.09531 | 148.14949 | 36257 ft | 427 kts | 236° |
| 2026-04-26 05:29 | -36.12908 | 148.08891 | 36251 ft | 428 kts | 236° |
| 2026-04-26 05:30 | -36.16296 | 148.02843 | 36257 ft | 428 kts | 236° |
| 2026-04-26 05:30 | -36.19686 | 147.96779 | 36250 ft | 428 kts | 236° |
| 2026-04-26 05:31 | -36.23047 | 147.90746 | 36232 ft | 423 kts | 236° |
| 2026-04-26 05:31 | -36.26347 | 147.84811 | 36232 ft | 416 kts | 236° |
| 2026-04-26 05:32 | -36.29645 | 147.78884 | 36230 ft | 419 kts | 237° |
| 2026-04-26 05:32 | -36.32950 | 147.72926 | 36236 ft | 420 kts | 237° |
| 2026-04-26 05:33 | -36.36249 | 147.66951 | 36231 ft | 420 kts | 238° |
| 2026-04-26 05:33 | -36.39546 | 147.60958 | 36240 ft | 420 kts | 238° |
| 2026-04-26 05:34 | -36.42848 | 147.54966 | 36240 ft | 420 kts | 238° |
| 2026-04-26 05:34 | -36.46149 | 147.48958 | 36244 ft | 421 kts | 238° |
| 2026-04-26 05:35 | -36.49422 | 147.42983 | 36243 ft | 421 kts | 238° |
| 2026-04-26 05:35 | -36.52712 | 147.36967 | 36243 ft | 421 kts | 238° |
| 2026-04-26 05:36 | -36.56000 | 147.30950 | 36244 ft | 421 kts | 238° |
| 2026-04-26 05:36 | -36.59293 | 147.24921 | 36246 ft | 421 kts | 238° |
| 2026-04-26 05:37 | -36.62578 | 147.18884 | 36251 ft | 421 kts | 238° |
| 2026-04-26 05:37 | -36.64218 | 147.15862 | 36128 ft | 422 kts | 238° |
| 2026-04-26 05:37 | -36.65855 | 147.12842 | 35840 ft | 419 kts | 238° |
| 2026-04-26 05:38 | -36.67482 | 147.09839 | 35589 ft | 418 kts | 238° |
| 2026-04-26 05:38 | -36.69108 | 147.06834 | 35342 ft | 418 kts | 238° |
| 2026-04-26 05:38 | -36.70735 | 147.03831 | 35094 ft | 419 kts | 238° |
| 2026-04-26 05:38 | -36.72371 | 147.00816 | 34850 ft | 419 kts | 238° |
| 2026-04-26 05:39 | -36.74002 | 146.97804 | 34611 ft | 420 kts | 238° |
| 2026-04-26 05:39 | -36.75634 | 146.94782 | 34374 ft | 420 kts | 238° |
| 2026-04-26 05:39 | -36.77268 | 146.91750 | 34128 ft | 421 kts | 238° |
| 2026-04-26 05:39 | -36.78900 | 146.88717 | 33855 ft | 422 kts | 238° |
| 2026-04-26 05:40 | -36.80534 | 146.85680 | 33585 ft | 422 kts | 238° |
| 2026-04-26 05:40 | -36.82175 | 146.82633 | 33322 ft | 423 kts | 238° |
| 2026-04-26 05:40 | -36.83817 | 146.79587 | 33060 ft | 423 kts | 238° |
| 2026-04-26 05:40 | -36.85463 | 146.76536 | 32798 ft | 424 kts | 238° |
| 2026-04-26 05:41 | -36.87109 | 146.73475 | 32538 ft | 425 kts | 238° |
| 2026-04-26 05:41 | -36.88752 | 146.70409 | 32282 ft | 425 kts | 238° |
| 2026-04-26 05:41 | -36.90400 | 146.67332 | 32036 ft | 426 kts | 238° |
| 2026-04-26 05:41 | -36.92296 | 146.64545 | 31720 ft | 429 kts | 223° |
| 2026-04-26 05:42 | -36.94782 | 146.62372 | 31055 ft | 432 kts | 213° |
| 2026-04-26 05:42 | -36.97343 | 146.60460 | 30325 ft | 436 kts | 212° |
| 2026-04-26 05:42 | -36.99961 | 146.58519 | 29475 ft | 439 kts | 212° |
| 2026-04-26 05:42 | -37.02593 | 146.56569 | 28634 ft | 441 kts | 212° |
| 2026-04-26 05:43 | -37.05244 | 146.54611 | 27793 ft | 443 kts | 212° |
| 2026-04-26 05:43 | -37.07910 | 146.52645 | 26948 ft | 445 kts | 212° |
| 2026-04-26 05:43 | -37.10587 | 146.50676 | 26106 ft | 447 kts | 212° |
| 2026-04-26 05:43 | -37.13279 | 146.48701 | 25261 ft | 449 kts | 212° |
| 2026-04-26 05:44 | -37.15986 | 146.46719 | 24393 ft | 452 kts | 212° |
| 2026-04-26 05:44 | -37.18708 | 146.44729 | 23455 ft | 454 kts | 212° |
| 2026-04-26 05:44 | -37.21451 | 146.42728 | 22355 ft | 456 kts | 212° |
| 2026-04-26 05:44 | -37.24205 | 146.40723 | 21206 ft | 459 kts | 212° |
| 2026-04-26 05:45 | -37.26983 | 146.38704 | 20051 ft | 463 kts | 207° |
| 2026-04-26 05:45 | -37.29772 | 146.36667 | 18877 ft | 465 kts | 212° |
| 2026-04-26 05:45 | -37.32585 | 146.34626 | 17762 ft | 466 kts | 212° |
| 2026-04-26 05:45 | -37.35369 | 146.32605 | 16995 ft | 456 kts | 212° |
| 2026-04-26 05:46 | -37.38088 | 146.30628 | 16073 ft | 450 kts | 212° |
| 2026-04-26 05:46 | -37.40739 | 146.28679 | 15778 ft | 431 kts | 214° |
| 2026-04-26 05:46 | -37.42999 | 146.26359 | 15532 ft | 411 kts | 230° |
| 2026-04-26 05:46 | -37.44627 | 146.23574 | 15287 ft | 392 kts | 244° |
| 2026-04-26 05:47 | -37.45633 | 146.20477 | 15050 ft | 374 kts | 258° |
| 2026-04-26 05:47 | -37.46009 | 146.17319 | 14807 ft | 357 kts | 271° |
| 2026-04-26 05:47 | -37.45817 | 146.14272 | 14567 ft | 342 kts | 283° |
| 2026-04-26 05:47 | -37.45138 | 146.11460 | 14328 ft | 330 kts | 295° |
| 2026-04-26 05:48 | -37.44055 | 146.08968 | 14089 ft | 320 kts | 306° |
| 2026-04-26 05:48 | -37.42650 | 146.06873 | 13837 ft | 310 kts | 315° |
| 2026-04-26 05:48 | -37.41156 | 146.04966 | 13577 ft | 303 kts | 314° |
| 2026-04-26 05:48 | -37.39696 | 146.03092 | 13317 ft | 297 kts | 314° |
| 2026-04-26 05:49 | -37.38275 | 146.01262 | 13197 ft | 290 kts | 314° |
| 2026-04-26 05:49 | -37.35454 | 145.97644 | 13205 ft | 290 kts | 314° |
| 2026-04-26 05:49 | -37.34049 | 145.95827 | 13208 ft | 290 kts | 311° |
| 2026-04-26 05:50 | -37.32955 | 145.93707 | 13205 ft | 291 kts | 294° |
| 2026-04-26 05:50 | -37.32433 | 145.91253 | 13208 ft | 293 kts | 277° |
| 2026-04-26 05:50 | -37.32543 | 145.88692 | 13208 ft | 296 kts | 259° |
| 2026-04-26 05:50 | -37.33301 | 145.86274 | 13203 ft | 301 kts | 242° |
| 2026-04-26 05:51 | -37.34441 | 145.84095 | 13202 ft | 302 kts | 239° |
| 2026-04-26 05:51 | -37.35618 | 145.81865 | 13202 ft | 303 kts | 239° |
| 2026-04-26 05:51 | -37.36779 | 145.79658 | 13206 ft | 302 kts | 239° |
| 2026-04-26 05:51 | -37.37936 | 145.77453 | 13201 ft | 302 kts | 240° |
| 2026-04-26 05:52 | -37.39091 | 145.75244 | 13202 ft | 302 kts | 240° |
| 2026-04-26 05:52 | -37.40246 | 145.73031 | 13204 ft | 302 kts | 240° |
| 2026-04-26 05:52 | -37.41398 | 145.70820 | 13200 ft | 302 kts | 240° |
| 2026-04-26 05:52 | -37.42552 | 145.68608 | 13198 ft | 302 kts | 240° |
| 2026-04-26 05:53 | -37.43705 | 145.66398 | 13198 ft | 302 kts | 240° |
| 2026-04-26 05:53 | -37.44858 | 145.64190 | 13190 ft | 302 kts | 240° |
| 2026-04-26 05:53 | -37.46027 | 145.62030 | 13191 ft | 303 kts | 238° |
| 2026-04-26 05:53 | -37.47264 | 145.59877 | 13195 ft | 304 kts | 237° |
| 2026-04-26 05:54 | -37.48522 | 145.57742 | 13192 ft | 304 kts | 237° |
| 2026-04-26 05:54 | -37.49787 | 145.55604 | 13190 ft | 304 kts | 237° |
| 2026-04-26 05:54 | -37.51048 | 145.53465 | 13018 ft | 305 kts | 237° |
| 2026-04-26 05:54 | -37.52304 | 145.51326 | 12756 ft | 302 kts | 237° |
| 2026-04-26 05:55 | -37.53548 | 145.49197 | 12501 ft | 301 kts | 237° |
| 2026-04-26 05:55 | -37.54782 | 145.47078 | 12245 ft | 299 kts | 237° |
| 2026-04-26 05:55 | -37.56009 | 145.44965 | 11989 ft | 297 kts | 237° |
| 2026-04-26 05:55 | -37.57224 | 145.42872 | 11738 ft | 295 kts | 237° |
| 2026-04-26 05:56 | -37.58432 | 145.40785 | 11490 ft | 293 kts | 237° |
| 2026-04-26 05:56 | -37.59631 | 145.38711 | 11243 ft | 292 kts | 237° |
| 2026-04-26 05:56 | -37.60820 | 145.36650 | 10996 ft | 290 kts | 237° |
| 2026-04-26 05:56 | -37.62004 | 145.34600 | 10744 ft | 288 kts | 237° |
| 2026-04-26 05:57 | -37.63185 | 145.32561 | 10501 ft | 286 kts | 236° |
| 2026-04-26 05:57 | -37.64356 | 145.30541 | 10251 ft | 284 kts | 237° |
| 2026-04-26 05:57 | -37.65511 | 145.28542 | 10026 ft | 279 kts | 237° |
| 2026-04-26 05:57 | -37.66638 | 145.26584 | 9851 ft | 273 kts | 236° |
| 2026-04-26 05:58 | -37.67737 | 145.24673 | 9716 ft | 265 kts | 237° |
| 2026-04-26 05:58 | -37.68807 | 145.22817 | 9555 ft | 258 kts | 237° |
| 2026-04-26 05:58 | -37.69846 | 145.21012 | 9295 ft | 257 kts | 237° |
| 2026-04-26 05:58 | -37.70885 | 145.19205 | 9150 ft | 251 kts | 237° |
| 2026-04-26 05:59 | -37.71895 | 145.17450 | 9022 ft | 243 kts | 237° |
| 2026-04-26 05:59 | -37.72871 | 145.15752 | 8892 ft | 234 kts | 238° |
| 2026-04-26 05:59 | -37.73810 | 145.14118 | 8725 ft | 227 kts | 238° |
| 2026-04-26 05:59 | -37.74727 | 145.12517 | 8459 ft | 223 kts | 238° |
| 2026-04-26 06:00 | -37.75633 | 145.10930 | 8157 ft | 222 kts | 238° |
| 2026-04-26 06:00 | -37.76536 | 145.09352 | 7880 ft | 221 kts | 238° |
| 2026-04-26 06:00 | -37.77437 | 145.07778 | 7592 ft | 220 kts | 238° |
| 2026-04-26 06:00 | -37.78031 | 145.06742 | 7403 ft | 219 kts | 238° |
| 2026-04-26 06:01 | -37.78922 | 145.05187 | 7105 ft | 218 kts | 238° |
| 2026-04-26 06:01 | -37.79809 | 145.03641 | 6840 ft | 216 kts | 239° |
| 2026-04-26 06:01 | -37.80687 | 145.02105 | 6607 ft | 214 kts | 240° |
| 2026-04-26 06:01 | -37.81526 | 144.99909 | 6241 ft | 207 kts | 257° |
| 2026-04-26 06:02 | -37.81846 | 144.98143 | 5942 ft | 206 kts | 261° |
| 2026-04-26 06:02 | -37.82153 | 144.96361 | 5525 ft | 212 kts | 261° |
| 2026-04-26 06:02 | -37.82372 | 144.95101 | 5153 ft | 221 kts | 261° |
| 2026-04-26 06:02 | -37.82688 | 144.93135 | 4557 ft | 234 kts | 263° |
| 2026-04-26 06:03 | -37.82947 | 144.91134 | 4139 ft | 231 kts | 264° |
| 2026-04-26 06:03 | -37.83163 | 144.89125 | 3619 ft | 229 kts | 271° |
| 2026-04-26 06:03 | -37.82706 | 144.87299 | 3255 ft | 216 kts | 311° |
| 2026-04-26 06:03 | -37.81450 | 144.86389 | 2914 ft | 208 kts | 349° |
| 2026-04-26 06:04 | -37.80035 | 144.86211 | 2655 ft | 200 kts | 352° |
| 2026-04-26 06:04 | -37.78698 | 144.85999 | 2377 ft | 188 kts | 350° |
| 2026-04-26 06:04 | -37.77430 | 144.85770 | 2098 ft | 179 kts | 350° |
| 2026-04-26 06:04 | -37.76226 | 144.85547 | 1859 ft | 170 kts | 352° |
| 2026-04-26 06:05 | -37.75087 | 144.85332 | 1638 ft | 166 kts | 350° |
| 2026-04-26 06:05 | -37.73965 | 144.85122 | 1423 ft | 162 kts | 349° |
| 2026-04-26 06:05 | -37.72860 | 144.84914 | 1170 ft | 158 kts | 350° |
| 2026-04-26 06:05 | -37.71746 | 144.84693 | 974 ft | 169 kts | 352° |
| 2026-04-26 06:06 | -37.70576 | 144.84464 | 808 ft | 167 kts | 352° |
| 2026-04-26 06:06 | -37.69425 | 144.84245 | 570 ft | 166 kts | 351° |
| 2026-04-26 06:06 | -37.68303 | 144.84046 | 364 ft | 153 kts | 352° |
| 2026-04-26 06:06 | -37.67414 | 144.83879 | 372 ft | 105 kts | 352° |
| 2026-04-26 06:07 | -37.66976 | 144.83836 | 386 ft | 26 kts | 26° |
| 2026-04-26 06:07 | -37.66859 | 144.83901 | 391 ft | 12 kts | 22° |
| 2026-04-26 06:07 | -37.66784 | 144.83940 | 393 ft | 12 kts | 25° |
| 2026-04-26 06:07 | -37.66727 | 144.84012 | 393 ft | 12 kts | 61° |
| 2026-04-26 06:08 | -37.66726 | 144.84118 | 391 ft | 13 kts | 114° |
| 2026-04-26 06:08 | -37.66790 | 144.84188 | 392 ft | 11 kts | 157° |
| 2026-04-26 06:08 | -37.66877 | 144.84209 | 389 ft | 15 kts | 171° |
| 2026-04-26 06:08 | -37.66996 | 144.84233 | 386 ft | 19 kts | 170° |
| 2026-04-26 06:09 | -37.67140 | 144.84258 | 383 ft | 23 kts | 171° |
| 2026-04-26 06:09 | -37.67304 | 144.84289 | 380 ft | 25 kts | 171° |
| 2026-04-26 06:09 | -37.67450 | 144.84319 | 377 ft | 18 kts | 156° |
| 2026-04-26 06:09 | -37.67471 | 144.84431 | 378 ft | 14 kts | 81° |
| 2026-04-26 06:10 | -37.67456 | 144.84558 | 380 ft | 15 kts | 81° |
| 2026-04-26 06:10 | -37.67443 | 144.84669 | 381 ft | 10 kts | 81° |
| 2026-04-26 06:10 | -37.67467 | 144.84731 | 381 ft | 10 kts | 168° |
| 2026-04-26 06:10 | -37.67508 | 144.84739 | 380 ft | 2 kts | 172° |
| 2026-04-26 06:11 | -37.67525 | 144.84742 | 379 ft | 0 kts | 172° |